Time;durP1;ratioP1;P1;durP2;ratioP2;P2;SDS_P1;SDS_P2;PMS_P1;PMS_P2;Temp;Humidity;BMP_temperature;BMP_pressure;BME280_temperature;BME280_humidity;BME280_pressure;Samples;Min_cycle;Max_cycle;Signal;HPM_P1;HPM_P2
2022/04/30 00:02:22;;;;;;;9.70;5.37;;;;;;;;;;1762294;80;21095;-71
2022/04/30 00:04:49;;;;;;;10.93;5.85;;;;;;;;;;1762258;81;21029;-72
2022/04/30 00:07:16;;;;;;;9.18;5.87;;;;;;;;;;1765770;81;21055;-72
2022/04/30 00:09:44;;;;;;;9.08;5.92;;;;;;;;;;1763857;81;21032;-72
2022/04/30 00:12:12;;;;;;;8.63;5.05;;;;;;;;;;1768643;81;21049;-72
2022/04/30 00:14:38;;;;;;;8.10;4.87;;;;;;;;;;1765845;81;21033;-72
2022/04/30 00:17:04;;;;;;;9.03;5.30;;;;;;;;;;1762803;81;21023;-72
2022/04/30 00:19:30;;;;;;;8.45;5.12;;;;;;;;;;1767329;81;21497;-72
2022/04/30 00:21:56;;;;;;;10.38;5.10;;;;;;;;;;1769006;81;21013;-72
2022/04/30 00:24:23;;;;;;;8.10;4.17;;;;;;;;;;1765870;81;21346;-72
2022/04/30 00:26:49;;;;;;;7.35;4.42;;;;;;;;;;1759044;81;20979;-72
2022/04/30 00:29:16;;;;;;;9.35;4.58;;;;;;;;;;1759216;81;21008;-72
2022/04/30 00:31:43;;;;;;;8.50;4.47;;;;;;;;;;1767232;81;21326;-72
2022/04/30 00:34:09;;;;;;;8.95;4.58;;;;;;;;;;1761769;81;21579;-73
2022/04/30 00:36:36;;;;;;;9.03;4.87;;;;;;;;;;1769147;81;20986;-73
2022/04/30 00:39:01;;;;;;;10.55;5.62;;;;;;;;;;1768489;81;21708;-71
2022/04/30 00:41:32;;;;;;;9.10;5.08;;;;;;;;;;1767572;81;20982;-72
2022/04/30 00:43:56;;;;;;;8.95;5.65;;;;;;;;;;1758873;81;21066;-73
2022/04/30 00:46:23;;;;;;;9.33;5.17;;;;;;;;;;1759567;81;21160;-73
2022/04/30 00:48:50;;;;;;;12.45;5.65;;;;;;;;;;1764115;81;21024;-74
2022/04/30 00:51:18;;;;;;;9.60;5.40;;;;;;;;;;1765780;81;21093;-75
2022/04/30 00:53:46;;;;;;;9.80;4.95;;;;;;;;;;1768668;81;21064;-70
2022/04/30 00:56:13;;;;;;;10.13;5.00;;;;;;;;;;1768973;81;21120;-71
2022/04/30 00:58:40;;;;;;;9.25;5.62;;;;;;;;;;1763004;81;21000;-70
2022/04/30 01:03:55;;;;;;;9.48;5.30;;;;;;;;;;1731376;79;75715;-72
2022/04/30 01:06:23;;;;;;;7.95;4.78;;;;;;;;;;1745302;82;21083;-72
2022/04/30 01:08:49;;;;;;;8.65;4.97;;;;;;;;;;1745323;82;20996;-71
2022/04/30 01:11:16;;;;;;;9.28;5.30;;;;;;;;;;1744985;82;21035;-71
2022/04/30 01:13:42;;;;;;;9.20;4.12;;;;;;;;;;1736955;82;21070;-72
2022/04/30 01:16:08;;;;;;;6.30;4.28;;;;;;;;;;1744944;82;21455;-71
2022/04/30 01:18:36;;;;;;;13.32;4.90;;;;;;;;;;1748752;82;21012;-71
2022/04/30 01:21:10;;;;;;;6.53;4.70;;;;;;;;;;1739211;82;21470;-71
2022/04/30 01:23:36;;;;;;;8.45;4.55;;;;;;;;;;1744622;82;20981;-71
2022/04/30 01:26:02;;;;;;;6.80;4.22;;;;;;;;;;1741796;82;20999;-71
2022/04/30 01:28:28;;;;;;;8.83;4.47;;;;;;;;;;1739051;82;21000;-71
2022/04/30 01:30:55;;;;;;;7.12;4.03;;;;;;;;;;1744483;82;21039;-71
2022/04/30 01:38:53;;;;;;;5.90;3.85;;;;;;;;;;1740521;82;21106;-70
2022/04/30 01:41:19;;;;;;;7.25;4.85;;;;;;;;;;1738898;82;21019;-71
2022/04/30 01:43:47;;;;;;;7.67;4.67;;;;;;;;;;1744350;82;21083;-72
2022/04/30 01:46:13;;;;;;;7.87;4.70;;;;;;;;;;1741969;82;21070;-70
2022/04/30 01:48:39;;;;;;;8.30;5.03;;;;;;;;;;1739431;82;20995;-70
2022/04/30 01:51:05;;;;;;;7.90;4.10;;;;;;;;;;1738935;82;21059;-70
2022/04/30 01:53:32;;;;;;;6.30;4.15;;;;;;;;;;1739580;82;21031;-70
2022/04/30 01:55:59;;;;;;;8.73;4.65;;;;;;;;;;1738789;82;21035;-70
2022/04/30 01:58:30;;;;;;;5.42;3.95;;;;;;;;;;1738043;82;21491;-70
2022/04/30 02:00:56;;;;;;;6.78;4.08;;;;;;;;;;1744756;82;21035;-70
2022/04/30 02:03:23;;;;;;;7.75;4.20;;;;;;;;;;1742824;82;21069;-71
2022/04/30 02:05:49;;;;;;;6.67;4.20;;;;;;;;;;1742361;82;20994;-71
2022/04/30 02:08:17;;;;;;;7.62;4.60;;;;;;;;;;1736819;82;21072;-71
2022/04/30 02:10:44;;;;;;;8.38;4.50;;;;;;;;;;1715763;82;21005;-70
2022/04/30 02:13:11;;;;;;;6.37;3.98;;;;;;;;;;1708610;82;21093;-71
2022/04/30 02:15:39;;;;;;;7.53;4.70;;;;;;;;;;1719295;82;21081;-72
2022/04/30 02:18:06;;;;;;;9.75;3.95;;;;;;;;;;1715755;84;21104;-71
2022/04/30 02:20:38;;;;;;;7.50;4.40;;;;;;;;;;1733055;82;21036;-71
2022/04/30 02:23:09;;;;;;;5.50;3.80;;;;;;;;;;1733904;82;21086;-71
2022/04/30 02:25:35;;;;;;;8.35;4.80;;;;;;;;;;1739156;82;21080;-71
2022/04/30 02:28:04;;;;;;;8.75;4.20;;;;;;;;;;1715666;83;21612;-71
2022/04/30 02:30:32;;;;;;;7.78;4.75;;;;;;;;;;1744104;82;21048;-71
2022/04/30 02:32:58;;;;;;;8.33;4.53;;;;;;;;;;1728622;82;21036;-71
2022/04/30 02:35:25;;;;;;;8.93;5.12;;;;;;;;;;1716112;82;21076;-71
2022/04/30 02:37:52;;;;;;;9.63;5.30;;;;;;;;;;1715589;82;21169;-71
2022/04/30 02:40:19;;;;;;;12.37;5.55;;;;;;;;;;1717600;82;21033;-71
2022/04/30 02:42:46;;;;;;;11.28;5.35;;;;;;;;;;1729126;82;21073;-71
2022/04/30 02:45:12;;;;;;;11.22;5.22;;;;;;;;;;1721186;82;21053;-71
2022/04/30 02:47:39;;;;;;;12.18;5.58;;;;;;;;;;1721441;82;21017;-71
2022/04/30 02:50:07;;;;;;;10.85;5.33;;;;;;;;;;1715615;82;21579;-71
2022/04/30 02:52:33;;;;;;;8.45;5.00;;;;;;;;;;1715686;82;21064;-71
2022/04/30 02:55:00;;;;;;;10.03;5.22;;;;;;;;;;1724241;82;21112;-71
2022/04/30 02:57:28;;;;;;;9.73;4.90;;;;;;;;;;1745344;82;21041;-71
2022/04/30 02:59:55;;;;;;;10.45;4.78;;;;;;;;;;1738569;82;21001;-71
2022/04/30 03:02:22;;;;;;;9.45;4.95;;;;;;;;;;1737787;82;21057;-72
2022/04/30 03:04:52;;;;;;;9.70;5.35;;;;;;;;;;1717393;82;21116;-71
2022/04/30 03:07:19;;;;;;;10.90;5.80;;;;;;;;;;1744717;82;21068;-71
2022/04/30 03:09:47;;;;;;;11.93;6.30;;;;;;;;;;1738950;81;21120;-71
2022/04/30 03:12:13;;;;;;;12.25;6.55;;;;;;;;;;1728112;81;20999;-71
2022/04/30 03:14:40;;;;;;;13.18;6.58;;;;;;;;;;1730557;81;21220;-71
2022/04/30 03:22:36;;;;;;;7.08;3.55;;;;;;;;;;1734321;82;21044;-71
2022/04/30 03:25:03;;;;;;;6.22;3.75;;;;;;;;;;1734098;82;21037;-73
2022/04/30 03:27:31;;;;;;;4.10;3.05;;;;;;;;;;1737803;82;21595;-73
2022/04/30 03:29:57;;;;;;;5.10;2.90;;;;;;;;;;1775384;81;21029;-74
2022/04/30 03:32:24;;;;;;;4.40;2.80;;;;;;;;;;1765856;81;21547;-73
2022/04/30 03:34:51;;;;;;;5.47;2.72;;;;;;;;;;1740886;82;21018;-71
2022/04/30 03:37:18;;;;;;;5.10;2.72;;;;;;;;;;1719272;82;21483;-71
2022/04/30 03:39:44;;;;;;;3.42;2.42;;;;;;;;;;1726952;82;21053;-71
2022/04/30 03:42:10;;;;;;;3.98;2.33;;;;;;;;;;1740555;82;21069;-70
2022/04/30 03:44:38;;;;;;;5.22;2.65;;;;;;;;;;1732308;82;21544;-70
2022/04/30 03:47:04;;;;;;;4.00;2.58;;;;;;;;;;1722482;82;21044;-71
2022/04/30 03:49:30;;;;;;;4.45;2.80;;;;;;;;;;1742973;82;21084;-71
2022/04/30 03:51:57;;;;;;;3.37;2.33;;;;;;;;;;1743416;82;21029;-71
2022/04/30 03:54:23;;;;;;;4.03;2.52;;;;;;;;;;1727714;82;21534;-71
2022/04/30 03:56:49;;;;;;;4.55;2.70;;;;;;;;;;1745129;82;21092;-71
2022/04/30 03:59:15;;;;;;;5.35;2.90;;;;;;;;;;1742093;82;21174;-72
2022/04/30 04:01:42;;;;;;;3.60;2.60;;;;;;;;;;1742769;82;21028;-72
2022/04/30 04:04:08;;;;;;;4.58;2.55;;;;;;;;;;1718593;82;21053;-72
2022/04/30 04:06:34;;;;;;;3.77;2.45;;;;;;;;;;1715276;83;21532;-72
2022/04/30 04:09:02;;;;;;;3.05;2.33;;;;;;;;;;1716159;82;21032;-72
2022/04/30 04:11:31;;;;;;;4.08;2.62;;;;;;;;;;1725428;82;21104;-72
2022/04/30 04:19:30;;;;;;;3.02;2.17;;;;;;;;;;1723441;82;21084;-71
2022/04/30 04:21:56;;;;;;;2.98;2.08;;;;;;;;;;1732352;82;21068;-71
2022/04/30 04:27:07;;;;;;;2.40;2.02;;;;;;;;;;1744954;82;21045;-71
2022/04/30 04:29:34;;;;;;;4.53;2.20;;;;;;;;;;1718435;82;21576;-71
2022/04/30 04:32:00;;;;;;;5.33;2.87;;;;;;;;;;1715805;82;21104;-71
2022/04/30 04:34:26;;;;;;;5.03;2.62;;;;;;;;;;1743216;82;21080;-72
2022/04/30 04:36:52;;;;;;;4.00;2.50;;;;;;;;;;1738317;82;21013;-72
2022/04/30 04:39:18;;;;;;;4.17;2.55;;;;;;;;;;1737961;82;21029;-72
2022/04/30 04:41:44;;;;;;;3.30;2.12;;;;;;;;;;1716001;84;21056;-72
2022/04/30 04:44:12;;;;;;;3.92;2.20;;;;;;;;;;1732587;82;21073;-72
2022/04/30 04:46:39;;;;;;;4.60;2.60;;;;;;;;;;1717676;82;21034;-73
2022/04/30 04:49:05;;;;;;;3.60;2.20;;;;;;;;;;1738426;81;21041;-72
2022/04/30 04:51:32;;;;;;;3.37;2.10;;;;;;;;;;1731564;82;21630;-72
2022/04/30 04:53:59;;;;;;;2.52;1.98;;;;;;;;;;1744992;82;21021;-71
2022/04/30 04:56:26;;;;;;;2.65;1.90;;;;;;;;;;1745235;82;21096;-71
2022/04/30 04:58:52;;;;;;;4.05;1.95;;;;;;;;;;1738926;82;21076;-71
2022/04/30 05:01:19;;;;;;;2.83;2.00;;;;;;;;;;1721622;82;21068;-71
2022/04/30 05:03:45;;;;;;;1.85;1.55;;;;;;;;;;1730176;82;21532;-71
2022/04/30 05:06:11;;;;;;;3.50;2.05;;;;;;;;;;1715356;82;21139;-71
2022/04/30 05:08:38;;;;;;;3.35;2.22;;;;;;;;;;1718853;82;21619;-71
2022/04/30 05:11:05;;;;;;;4.17;2.30;;;;;;;;;;1744920;81;21084;-71
2022/04/30 05:13:31;;;;;;;4.50;2.50;;;;;;;;;;1729753;81;21064;-71
2022/04/30 05:15:57;;;;;;;4.30;2.75;;;;;;;;;;1725825;81;21025;-72
2022/04/30 05:18:23;;;;;;;4.30;2.72;;;;;;;;;;1728739;81;21076;-72
2022/04/30 05:20:50;;;;;;;4.20;3.10;;;;;;;;;;1741951;82;21092;-72
2022/04/30 05:23:16;;;;;;;5.85;3.65;;;;;;;;;;1730837;81;21088;-72
2022/04/30 05:25:42;;;;;;;7.62;4.10;;;;;;;;;;1744072;82;21548;-71
2022/04/30 05:28:09;;;;;;;6.58;4.22;;;;;;;;;;1746136;81;21005;-72
2022/04/30 05:30:36;;;;;;;7.00;4.90;;;;;;;;;;1744960;82;21034;-71
2022/04/30 05:33:03;;;;;;;8.53;6.15;;;;;;;;;;1744839;82;21133;-71
2022/04/30 05:35:29;;;;;;;9.63;6.03;;;;;;;;;;1729366;81;21047;-70
2022/04/30 05:37:56;;;;;;;11.25;5.72;;;;;;;;;;1729741;82;21064;-70
2022/04/30 05:40:22;;;;;;;10.08;5.95;;;;;;;;;;1744729;82;21563;-70
2022/04/30 05:42:48;;;;;;;9.60;6.30;;;;;;;;;;1745126;82;21032;-71
2022/04/30 05:45:14;;;;;;;8.45;5.95;;;;;;;;;;1744781;82;21544;-70
2022/04/30 05:47:40;;;;;;;9.30;4.90;;;;;;;;;;1745139;82;21018;-73
2022/04/30 05:52:09;;;;;;;8.75;4.67;;;;;;;;;;1802034;79;22936;-72
2022/04/30 05:54:35;;;;;;;6.05;4.12;;;;;;;;;;1753559;80;21507;-72
2022/04/30 05:57:02;;;;;;;7.40;4.80;;;;;;;;;;1780718;80;21036;-72
2022/04/30 05:59:28;;;;;;;6.58;4.17;;;;;;;;;;1762923;80;21575;-72
2022/04/30 06:01:54;;;;;;;6.45;4.58;;;;;;;;;;1761591;81;21060;-73
2022/04/30 06:04:21;;;;;;;7.35;3.90;;;;;;;;;;1746013;81;21065;-73
2022/04/30 06:06:47;;;;;;;5.92;3.85;;;;;;;;;;1708442;84;21571;-72
2022/04/30 06:09:13;;;;;;;4.50;3.45;;;;;;;;;;1708427;84;21004;-73
2022/04/30 06:11:39;;;;;;;6.28;3.75;;;;;;;;;;1708089;84;21071;-72
2022/04/30 06:14:06;;;;;;;5.25;3.45;;;;;;;;;;1708238;82;21043;-72
2022/04/30 06:16:34;;;;;;;4.70;3.35;;;;;;;;;;1749062;82;21044;-72
2022/04/30 06:19:00;;;;;;;4.40;3.12;;;;;;;;;;1753578;82;21024;-73
2022/04/30 06:21:25;;;;;;;4.37;3.17;;;;;;;;;;1734380;82;21015;-72
2022/04/30 06:23:51;;;;;;;4.97;2.80;;;;;;;;;;1741837;82;20990;-73
2022/04/30 06:26:17;;;;;;;5.17;2.80;;;;;;;;;;1751921;82;21084;-71
2022/04/30 06:28:44;;;;;;;4.83;2.80;;;;;;;;;;1751883;82;21060;-71
2022/04/30 06:31:10;;;;;;;5.37;2.90;;;;;;;;;;1751604;82;21124;-72
2022/04/30 06:33:37;;;;;;;6.15;2.77;;;;;;;;;;1751921;82;21478;-72
2022/04/30 06:36:03;;;;;;;3.70;2.70;;;;;;;;;;1751771;82;21521;-72
2022/04/30 06:38:31;;;;;;;5.28;2.92;;;;;;;;;;1749378;82;21082;-72
2022/04/30 06:40:58;;;;;;;3.92;2.90;;;;;;;;;;1742173;82;21018;-72
2022/04/30 06:43:24;;;;;;;3.85;3.00;;;;;;;;;;1751761;82;21548;-73
2022/04/30 06:45:52;;;;;;;6.25;3.20;;;;;;;;;;1751647;82;21072;-73
2022/04/30 06:48:18;;;;;;;5.15;3.10;;;;;;;;;;1751808;82;21592;-73
2022/04/30 06:50:47;;;;;;;4.00;2.87;;;;;;;;;;1747298;82;21077;-72
2022/04/30 06:58:50;;;;;;;5.62;3.52;;;;;;;;;;1729949;82;21147;-71
2022/04/30 07:01:28;;;;;;;4.05;3.08;;;;;;;;;;1727812;82;21112;-72
2022/04/30 07:03:55;;;;;;;4.92;3.02;;;;;;;;;;1732831;82;21148;-71
2022/04/30 07:06:20;;;;;;;4.90;2.92;;;;;;;;;;1695374;84;21099;-71
2022/04/30 07:08:47;;;;;;;2.87;2.27;;;;;;;;;;1710508;82;21037;-71
2022/04/30 07:11:14;;;;;;;3.40;2.40;;;;;;;;;;1727485;82;21025;-71
2022/04/30 07:13:43;;;;;;;3.65;2.40;;;;;;;;;;1664207;86;21097;-71
2022/04/30 07:16:09;;;;;;;3.50;2.45;;;;;;;;;;1729477;82;21059;-72
2022/04/30 07:18:37;;;;;;;3.12;2.40;;;;;;;;;;1739559;82;21577;-72
2022/04/30 07:21:04;;;;;;;3.02;2.30;;;;;;;;;;1739666;82;21077;-72
2022/04/30 07:23:31;;;;;;;3.30;2.40;;;;;;;;;;1739579;82;21017;-72
2022/04/30 07:25:57;;;;;;;5.60;3.02;;;;;;;;;;1739489;82;20998;-72
2022/04/30 07:28:23;;;;;;;3.92;2.60;;;;;;;;;;1720069;82;21073;-72
2022/04/30 07:30:51;;;;;;;4.95;2.70;;;;;;;;;;1710158;84;21060;-72
2022/04/30 07:33:17;;;;;;;4.47;3.02;;;;;;;;;;1710362;84;21033;-72
2022/04/30 07:35:43;;;;;;;3.65;2.77;;;;;;;;;;1710117;84;21037;-72
2022/04/30 07:38:09;;;;;;;4.25;2.37;;;;;;;;;;1710260;84;21041;-72
2022/04/30 07:40:38;;;;;;;3.05;2.33;;;;;;;;;;1710258;84;21496;-72
2022/04/30 07:43:04;;;;;;;4.15;2.50;;;;;;;;;;1710147;84;21531;-72
2022/04/30 07:45:30;;;;;;;4.33;2.65;;;;;;;;;;1717704;82;21060;-70
2022/04/30 07:47:56;;;;;;;3.75;2.33;;;;;;;;;;1737946;82;21057;-70
2022/04/30 07:50:25;;;;;;;3.75;2.42;;;;;;;;;;1725429;82;21086;-70
2022/04/30 07:52:51;;;;;;;2.83;2.08;;;;;;;;;;1725013;83;21050;-71
2022/04/30 07:55:17;;;;;;;2.62;2.30;;;;;;;;;;1727461;82;21013;-71
2022/04/30 07:57:43;;;;;;;3.12;2.30;;;;;;;;;;1739692;82;21167;-71
2022/04/30 08:00:11;;;;;;;3.10;2.30;;;;;;;;;;1734332;82;22128;-72
2022/04/30 08:02:39;;;;;;;3.90;2.50;;;;;;;;;;1699237;82;21107;-71
2022/04/30 08:05:07;;;;;;;3.10;2.40;;;;;;;;;;1695160;85;21622;-71
2022/04/30 08:07:33;;;;;;;4.80;2.70;;;;;;;;;;1705409;82;21029;-71
2022/04/30 08:10:00;;;;;;;3.90;2.33;;;;;;;;;;1721068;82;21018;-71
2022/04/30 08:12:25;;;;;;;5.53;3.15;;;;;;;;;;1726521;82;20985;-77
2022/04/30 08:14:52;;;;;;;5.83;2.70;;;;;;;;;;1721526;82;21016;-76
2022/04/30 08:17:18;;;;;;;2.75;2.37;;;;;;;;;;1739645;82;21521;-76
2022/04/30 08:19:44;;;;;;;4.15;2.67;;;;;;;;;;1739509;82;21029;-76
2022/04/30 08:22:10;;;;;;;4.97;3.25;;;;;;;;;;1739282;82;21013;-76
2022/04/30 08:24:38;;;;;;;3.80;2.70;;;;;;;;;;1739385;82;21661;-76
2022/04/30 08:27:05;;;;;;;4.70;2.72;;;;;;;;;;1739553;82;21068;-76
2022/04/30 08:29:31;;;;;;;3.92;2.80;;;;;;;;;;1739571;82;21541;-76
2022/04/30 08:31:57;;;;;;;4.85;2.90;;;;;;;;;;1739327;82;20986;-77
2022/04/30 08:34:24;;;;;;;4.20;2.70;;;;;;;;;;1739714;82;21080;-76
2022/04/30 08:36:50;;;;;;;5.40;3.10;;;;;;;;;;1739560;82;21025;-76
2022/04/30 08:39:16;;;;;;;5.17;3.00;;;;;;;;;;1739753;82;20997;-76
2022/04/30 08:41:44;;;;;;;5.08;3.27;;;;;;;;;;1739313;82;21053;-76
2022/04/30 08:44:16;;;;;;;9.58;4.80;;;;;;;;;;1739403;82;21103;-76
2022/04/30 08:46:44;;;;;;;11.83;5.58;;;;;;;;;;1739622;82;21552;-76
2022/04/30 08:49:11;;;;;;;11.12;5.25;;;;;;;;;;1739712;82;21009;-77
2022/04/30 08:51:38;;;;;;;8.88;5.28;;;;;;;;;;1745773;82;21033;-76
2022/04/30 08:54:04;;;;;;;10.80;6.17;;;;;;;;;;1753454;82;21095;-76
2022/04/30 08:56:30;;;;;;;12.78;5.95;;;;;;;;;;1753454;82;21095;-76
2022/04/30 08:59:05;;;;;;;9.78;4.12;;;;;;;;;;1753969;81;21073;-76
2022/04/30 09:01:51;;;;;;;8.43;4.40;;;;;;;;;;1753506;81;21052;-76
2022/04/30 09:04:17;;;;;;;8.05;4.22;;;;;;;;;;1753634;81;21024;-76
2022/04/30 09:06:47;;;;;;;6.30;3.52;;;;;;;;;;1753607;81;21507;-76
2022/04/30 09:09:24;;;;;;;6.40;3.60;;;;;;;;;;1753863;81;21021;-76
2022/04/30 09:11:56;;;;;;;5.97;3.02;;;;;;;;;;1753524;82;21087;-76
2022/04/30 09:14:23;;;;;;;6.40;3.30;;;;;;;;;;1753642;81;21055;-75
2022/04/30 09:16:50;;;;;;;4.80;3.30;;;;;;;;;;1753316;82;21501;-75
2022/04/30 09:19:18;;;;;;;6.00;4.08;;;;;;;;;;1726441;82;21583;-76
2022/04/30 09:21:49;;;;;;;4.37;2.83;;;;;;;;;;1753628;82;21056;-78
2022/04/30 09:24:16;;;;;;;5.40;3.52;;;;;;;;;;1753481;81;21021;-75
2022/04/30 09:26:43;;;;;;;4.40;3.05;;;;;;;;;;1753602;82;21009;-77
2022/04/30 09:29:22;;;;;;;5.00;3.00;;;;;;;;;;1753518;82;21053;-76
2022/04/30 09:31:50;;;;;;;3.92;3.00;;;;;;;;;;1753552;82;21001;-78
2022/04/30 09:39:46;;;;;;;4.67;3.08;;;;;;;;;;1753701;82;21059;-77
2022/04/30 09:42:12;;;;;;;4.87;2.90;;;;;;;;;;1753219;82;21056;-77
2022/04/30 09:44:38;;;;;;;3.62;2.75;;;;;;;;;;1753667;82;20986;-77
2022/04/30 09:47:06;;;;;;;3.70;2.80;;;;;;;;;;1753254;82;21021;-77
2022/04/30 09:54:56;;;;;;;3.55;2.42;;;;;;;;;;1747640;82;21033;-76
2022/04/30 09:57:23;;;;;;;5.45;2.30;;;;;;;;;;1747759;82;21021;-75
2022/04/30 09:59:51;;;;;;;5.55;2.80;;;;;;;;;;1747685;82;21021;-78
2022/04/30 10:02:17;;;;;;;3.67;2.50;;;;;;;;;;1747707;82;20978;-75
2022/04/30 10:04:45;;;;;;;5.65;2.42;;;;;;;;;;1747707;82;21052;-76
2022/04/30 10:07:11;;;;;;;3.65;2.20;;;;;;;;;;1747784;82;21508;-77
2022/04/30 10:09:38;;;;;;;3.83;2.62;;;;;;;;;;1750805;81;21049;-76
2022/04/30 10:12:23;;;;;;;4.72;2.55;;;;;;;;;;1750765;80;21057;-76
2022/04/30 10:15:10;;;;;;;4.00;2.10;;;;;;;;;;1747873;82;20986;-76
2022/04/30 10:17:52;;;;;;;4.55;2.80;;;;;;;;;;1710811;82;21646;-76
2022/04/30 10:20:29;;;;;;;3.20;2.20;;;;;;;;;;1712408;84;21099;-76
2022/04/30 10:22:57;;;;;;;3.50;2.42;;;;;;;;;;1712281;84;21114;-78
2022/04/30 10:25:33;;;;;;;3.55;2.50;;;;;;;;;;1711962;84;21118;-77
2022/04/30 10:28:01;;;;;;;4.87;2.60;;;;;;;;;;1712308;84;21047;-77
2022/04/30 10:30:27;;;;;;;3.83;2.47;;;;;;;;;;1712254;84;21054;-76
2022/04/30 10:32:59;;;;;;;3.80;2.35;;;;;;;;;;1712010;84;21047;-76
2022/04/30 10:35:30;;;;;;;2.98;2.37;;;;;;;;;;1712345;84;21550;-76
2022/04/30 10:38:14;;;;;;;4.37;2.50;;;;;;;;;;1712152;84;21074;-76
2022/04/30 10:40:44;;;;;;;3.27;2.40;;;;;;;;;;1712079;84;21043;-76
2022/04/30 10:43:28;;;;;;;4.47;2.40;;;;;;;;;;1712107;84;21058;-76
2022/04/30 10:45:56;;;;;;;3.50;2.47;;;;;;;;;;1712286;84;21118;-77
2022/04/30 10:48:22;;;;;;;4.25;2.42;;;;;;;;;;1712102;84;21118;-76
2022/04/30 10:50:51;;;;;;;3.87;2.50;;;;;;;;;;1712375;84;21086;-77
2022/04/30 10:53:17;;;;;;;3.50;2.27;;;;;;;;;;1712421;84;21047;-77
2022/04/30 10:55:43;;;;;;;3.40;2.30;;;;;;;;;;1712258;84;21539;-77
2022/04/30 10:58:09;;;;;;;3.15;2.30;;;;;;;;;;1712340;84;21074;-77
2022/04/30 11:00:36;;;;;;;3.52;2.33;;;;;;;;;;1712250;84;21115;-77
2022/04/30 11:03:11;;;;;;;3.30;2.30;;;;;;;;;;1712160;84;21107;-74
2022/04/30 11:05:38;;;;;;;3.33;2.30;;;;;;;;;;1711479;84;21048;-70
2022/04/30 11:08:04;;;;;;;3.52;2.30;;;;;;;;;;1682401;84;21602;-79
2022/04/30 11:10:31;;;;;;;3.47;2.15;;;;;;;;;;1711880;82;21063;-78
2022/04/30 11:13:03;;;;;;;3.42;2.30;;;;;;;;;;1710900;82;21020;-77
2022/04/30 11:15:29;;;;;;;3.22;2.27;;;;;;;;;;1694660;82;21087;-79
2022/04/30 11:17:57;;;;;;;3.22;2.20;;;;;;;;;;1703133;84;21103;-77
2022/04/30 11:20:23;;;;;;;4.55;2.30;;;;;;;;;;1706004;84;21571;-77
2022/04/30 11:22:57;;;;;;;2.90;1.98;;;;;;;;;;1674432;86;21056;-77
2022/04/30 11:25:36;;;;;;;3.52;2.05;;;;;;;;;;1675054;86;21032;-77
2022/04/30 11:28:06;;;;;;;3.37;1.98;;;;;;;;;;1674816;84;21008;-77
2022/04/30 11:30:40;;;;;;;4.08;2.20;;;;;;;;;;1674764;86;21151;-78
2022/04/30 11:33:07;;;;;;;2.50;2.08;;;;;;;;;;1674161;86;21536;-80
2022/04/30 11:35:33;;;;;;;3.77;2.20;;;;;;;;;;1674699;86;21024;-80
2022/04/30 11:38:00;;;;;;;3.47;2.10;;;;;;;;;;1674669;86;21083;-80
2022/04/30 11:40:27;;;;;;;4.55;2.30;;;;;;;;;;1674977;86;21056;-80
2022/04/30 11:42:59;;;;;;;2.47;2.00;;;;;;;;;;1674862;86;21060;-79
2022/04/30 11:45:26;;;;;;;3.30;2.27;;;;;;;;;;1674836;86;21064;-79
2022/04/30 11:47:52;;;;;;;4.92;2.40;;;;;;;;;;1674782;86;21539;-79
2022/04/30 11:50:18;;;;;;;3.65;2.30;;;;;;;;;;1674412;86;21835;-79
2022/04/30 11:52:45;;;;;;;2.80;2.30;;;;;;;;;;1674469;86;21088;-79
2022/04/30 11:55:11;;;;;;;4.53;2.30;;;;;;;;;;1674701;86;21020;-80
2022/04/30 11:57:40;;;;;;;3.05;2.05;;;;;;;;;;1674680;85;21559;-79
2022/04/30 12:00:07;;;;;;;3.37;2.22;;;;;;;;;;1674474;86;21111;-77
2022/04/30 12:02:39;;;;;;;4.17;2.60;;;;;;;;;;1674196;86;21040;-80
2022/04/30 12:05:03;;;;;;;3.72;2.20;;;;;;;;;;1674397;86;21075;-80
2022/04/30 12:07:36;;;;;;;3.87;2.30;;;;;;;;;;1674745;86;21492;-78
2022/04/30 12:10:14;;;;;;;3.95;2.20;;;;;;;;;;1674854;86;21120;-78
2022/04/30 12:12:41;;;;;;;3.47;2.00;;;;;;;;;;1674837;86;21063;-79
2022/04/30 12:15:09;;;;;;;4.53;2.25;;;;;;;;;;1674587;86;21114;-78
2022/04/30 12:17:36;;;;;;;3.02;2.00;;;;;;;;;;1683156;82;21072;-79
2022/04/30 12:25:33;;;;;;;4.05;2.30;;;;;;;;;;1677629;85;21068;-78
2022/04/30 12:28:02;;;;;;;2.72;2.10;;;;;;;;;;1668052;85;21623;-79
2022/04/30 12:30:28;;;;;;;2.65;1.98;;;;;;;;;;1683648;85;21056;-79
2022/04/30 12:32:56;;;;;;;4.50;2.33;;;;;;;;;;1683486;85;21580;-79
2022/04/30 12:35:24;;;;;;;4.75;2.52;;;;;;;;;;1677604;85;21059;-78
2022/04/30 12:38:08;;;;;;;3.62;2.35;;;;;;;;;;1666305;85;21045;-79
2022/04/30 12:40:35;;;;;;;3.02;2.20;;;;;;;;;;1652566;87;21096;-77
2022/04/30 12:43:02;;;;;;;4.40;2.22;;;;;;;;;;1652618;87;21545;-78
2022/04/30 12:45:31;;;;;;;3.85;2.10;;;;;;;;;;1651205;87;21117;-78
2022/04/30 12:47:57;;;;;;;3.80;2.20;;;;;;;;;;1639757;87;20998;-78
2022/04/30 12:50:24;;;;;;;3.10;2.30;;;;;;;;;;1631813;87;21084;-78
2022/04/30 12:52:51;;;;;;;5.22;2.35;;;;;;;;;;1635348;85;20990;-79
2022/04/30 12:55:18;;;;;;;3.90;2.27;;;;;;;;;;1648925;85;21144;-79
2022/04/30 12:57:45;;;;;;;3.50;2.10;;;;;;;;;;1652966;87;21104;-79
2022/04/30 13:00:12;;;;;;;4.08;2.27;;;;;;;;;;1653063;85;21647;-79
2022/04/30 13:02:39;;;;;;;4.00;2.33;;;;;;;;;;1640161;87;21622;-79
2022/04/30 13:05:07;;;;;;;3.08;2.30;;;;;;;;;;1628687;87;21139;-79
2022/04/30 13:07:34;;;;;;;2.33;2.00;;;;;;;;;;1644365;85;21520;-79
2022/04/30 13:15:33;;;;;;;3.72;2.27;;;;;;;;;;1638781;85;21077;-79
2022/04/30 13:18:01;;;;;;;3.83;2.25;;;;;;;;;;1647369;85;21107;-79
2022/04/30 13:20:28;;;;;;;3.80;2.60;;;;;;;;;;1691115;82;21012;-80
2022/04/30 13:22:56;;;;;;;2.85;2.20;;;;;;;;;;1674841;86;21028;-80
2022/04/30 13:25:23;;;;;;;5.00;2.15;;;;;;;;;;1706449;84;21068;-79
2022/04/30 13:27:49;;;;;;;4.47;2.37;;;;;;;;;;1706653;83;21095;-79
2022/04/30 13:30:17;;;;;;;4.53;2.62;;;;;;;;;;1713892;83;21551;-80
2022/04/30 13:32:46;;;;;;;4.95;2.60;;;;;;;;;;1722372;82;21067;-79
2022/04/30 13:35:13;;;;;;;3.20;2.40;;;;;;;;;;1739453;82;21539;-79
2022/04/30 13:37:42;;;;;;;3.55;2.40;;;;;;;;;;1739748;82;21056;-79
2022/04/30 13:40:09;;;;;;;2.80;2.05;;;;;;;;;;1734806;82;21035;-79
2022/04/30 13:42:37;;;;;;;4.80;2.50;;;;;;;;;;1673971;86;21154;-80
2022/04/30 13:45:04;;;;;;;3.25;2.30;;;;;;;;;;1706481;84;21040;-78
2022/04/30 13:47:30;;;;;;;3.45;2.33;;;;;;;;;;1706107;84;21095;-79
2022/04/30 13:49:56;;;;;;;3.12;2.30;;;;;;;;;;1706506;84;21043;-79
2022/04/30 13:52:22;;;;;;;2.98;2.17;;;;;;;;;;1706155;84;21591;-80
2022/04/30 13:54:49;;;;;;;4.37;2.25;;;;;;;;;;1706486;84;21049;-80
2022/04/30 13:57:15;;;;;;;2.45;2.22;;;;;;;;;;1706357;84;21016;-80
2022/04/30 13:59:41;;;;;;;2.67;2.10;;;;;;;;;;1706599;84;21052;-81
2022/04/30 14:02:10;;;;;;;4.05;1.95;;;;;;;;;;1706629;84;21016;-81
2022/04/30 14:04:35;;;;;;;3.27;2.00;;;;;;;;;;1706587;84;21025;-81
2022/04/30 14:07:02;;;;;;;3.52;2.22;;;;;;;;;;1706813;84;21036;-81
2022/04/30 14:09:29;;;;;;;3.62;2.35;;;;;;;;;;1706693;84;21049;-81
2022/04/30 14:11:56;;;;;;;3.02;2.20;;;;;;;;;;1707111;84;21036;-80
2022/04/30 14:19:51;;;;;;;3.25;2.20;;;;;;;;;;1706795;84;21048;-79
2022/04/30 14:22:17;;;;;;;2.75;1.95;;;;;;;;;;1706647;84;21015;-80
2022/04/30 14:24:44;;;;;;;2.20;1.87;;;;;;;;;;1706395;84;21079;-79
2022/04/30 14:27:10;;;;;;;3.35;2.30;;;;;;;;;;1706580;84;21064;-79
2022/04/30 14:29:36;;;;;;;2.72;2.17;;;;;;;;;;1706719;84;21083;-79
2022/04/30 14:32:03;;;;;;;2.98;2.10;;;;;;;;;;1706236;84;21044;-79
2022/04/30 14:34:31;;;;;;;4.28;2.77;;;;;;;;;;1709652;83;20973;-79
2022/04/30 14:36:58;;;;;;;3.45;2.25;;;;;;;;;;1710774;83;21119;-81
2022/04/30 14:39:24;;;;;;;4.58;2.50;;;;;;;;;;1708078;84;21053;-81
2022/04/30 14:41:51;;;;;;;3.33;2.30;;;;;;;;;;1680841;84;21841;-79
2022/04/30 14:44:18;;;;;;;3.35;2.45;;;;;;;;;;1706567;84;21064;-79
2022/04/30 14:46:44;;;;;;;3.92;2.37;;;;;;;;;;1706526;84;21036;-79
2022/04/30 14:49:11;;;;;;;2.60;1.92;;;;;;;;;;1706485;84;21582;-78
2022/04/30 14:51:36;;;;;;;2.20;1.55;;;;;;;;;;1706786;84;21067;-78
2022/04/30 14:54:03;;;;;;;2.87;1.80;;;;;;;;;;1707223;84;21052;-79
2022/04/30 14:56:30;;;;;;;3.17;2.08;;;;;;;;;;1707025;84;21040;-79
2022/04/30 14:58:56;;;;;;;2.62;1.95;;;;;;;;;;1706787;84;21055;-79
2022/04/30 15:01:22;;;;;;;3.20;2.10;;;;;;;;;;1706735;84;21052;-79
2022/04/30 15:03:48;;;;;;;3.15;2.00;;;;;;;;;;1706925;84;21095;-79
2022/04/30 15:06:14;;;;;;;3.72;2.30;;;;;;;;;;1706833;84;21606;-79
2022/04/30 15:08:41;;;;;;;3.77;2.20;;;;;;;;;;1706391;84;21055;-79
2022/04/30 15:11:07;;;;;;;3.77;2.10;;;;;;;;;;1706783;84;21024;-80
2022/04/30 15:13:33;;;;;;;4.62;2.20;;;;;;;;;;1706749;84;21067;-81
2022/04/30 15:16:00;;;;;;;2.90;1.85;;;;;;;;;;1706696;84;21108;-80
2022/04/30 15:18:27;;;;;;;3.72;2.33;;;;;;;;;;1710347;82;21047;-81
2022/04/30 15:20:53;;;;;;;3.37;1.85;;;;;;;;;;1712049;84;21042;-81
2022/04/30 15:23:19;;;;;;;3.85;1.95;;;;;;;;;;1711697;83;21039;-80
2022/04/30 15:25:46;;;;;;;5.42;2.20;;;;;;;;;;1711469;84;21077;-78
2022/04/30 15:28:13;;;;;;;3.27;2.55;;;;;;;;;;1711810;84;21055;-79
2022/04/30 15:30:40;;;;;;;3.87;2.10;;;;;;;;;;1706035;84;21075;-78
2022/04/30 15:33:07;;;;;;;2.70;1.98;;;;;;;;;;1688745;84;20985;-79
2022/04/30 15:35:33;;;;;;;3.33;2.10;;;;;;;;;;1718394;82;21020;-78
2022/04/30 15:38:00;;;;;;;2.83;2.05;;;;;;;;;;1737261;82;21064;-78
2022/04/30 15:40:26;;;;;;;2.95;2.12;;;;;;;;;;1737405;82;21067;-78
2022/04/30 15:42:52;;;;;;;2.90;2.20;;;;;;;;;;1737478;82;21103;-79